sensor_id;sensor_type;location;lat;lon;timestamp;P1;durP1;ratioP1;P2;durP2;ratioP2
65667;SDS011;52369;52.542;13.232;2023-04-24T00:00:28;12.70;;;7.38;;
65667;SDS011;52369;52.542;13.232;2023-04-24T00:02:54;9.25;;;5.30;;
65667;SDS011;52369;52.542;13.232;2023-04-24T00:05:23;9.95;;;5.80;;
65667;SDS011;52369;52.542;13.232;2023-04-24T00:07:49;8.75;;;5.13;;
65667;SDS011;52369;52.542;13.232;2023-04-24T00:10:19;7.85;;;5.10;;
65667;SDS011;52369;52.542;13.232;2023-04-24T00:12:45;9.02;;;5.50;;
65667;SDS011;52369;52.542;13.232;2023-04-24T00:15:11;9.70;;;5.22;;
65667;SDS011;52369;52.542;13.232;2023-04-24T00:17:37;8.40;;;5.15;;
65667;SDS011;52369;52.542;13.232;2023-04-24T00:20:04;10.60;;;6.03;;
65667;SDS011;52369;52.542;13.232;2023-04-24T00:22:31;10.80;;;5.60;;
65667;SDS011;52369;52.542;13.232;2023-04-24T00:24:58;7.88;;;5.13;;
65667;SDS011;52369;52.542;13.232;2023-04-24T00:27:24;9.95;;;5.80;;
65667;SDS011;52369;52.542;13.232;2023-04-24T00:29:50;7.40;;;4.85;;
65667;SDS011;52369;52.542;13.232;2023-04-24T00:32:16;10.27;;;5.28;;
65667;SDS011;52369;52.542;13.232;2023-04-24T00:34:42;10.27;;;5.82;;
65667;SDS011;52369;52.542;13.232;2023-04-24T00:37:08;9.25;;;5.47;;
65667;SDS011;52369;52.542;13.232;2023-04-24T00:39:34;10.43;;;5.32;;
65667;SDS011;52369;52.542;13.232;2023-04-24T00:42:00;8.93;;;5.35;;
65667;SDS011;52369;52.542;13.232;2023-04-24T00:44:26;7.32;;;4.63;;
65667;SDS011;52369;52.542;13.232;2023-04-24T00:46:53;8.20;;;5.10;;
65667;SDS011;52369;52.542;13.232;2023-04-24T00:49:21;9.30;;;5.65;;
65667;SDS011;52369;52.542;13.232;2023-04-24T00:51:47;8.25;;;5.38;;
65667;SDS011;52369;52.542;13.232;2023-04-24T00:54:14;8.07;;;5.63;;
65667;SDS011;52369;52.542;13.232;2023-04-24T00:56:41;9.02;;;5.70;;
65667;SDS011;52369;52.542;13.232;2023-04-24T00:59:07;8.32;;;5.25;;
65667;SDS011;52369;52.542;13.232;2023-04-24T01:01:33;9.13;;;5.47;;
65667;SDS011;52369;52.542;13.232;2023-04-24T01:04:00;8.48;;;5.07;;
65667;SDS011;52369;52.542;13.232;2023-04-24T01:06:27;9.65;;;5.50;;
65667;SDS011;52369;52.542;13.232;2023-04-24T01:08:54;8.75;;;5.15;;
65667;SDS011;52369;52.542;13.232;2023-04-24T01:11:23;9.45;;;5.20;;
65667;SDS011;52369;52.542;13.232;2023-04-24T01:13:50;9.25;;;5.68;;
65667;SDS011;52369;52.542;13.232;2023-04-24T01:16:16;7.82;;;5.65;;
65667;SDS011;52369;52.542;13.232;2023-04-24T01:18:42;9.27;;;5.55;;
65667;SDS011;52369;52.542;13.232;2023-04-24T01:21:09;12.43;;;6.15;;
65667;SDS011;52369;52.542;13.232;2023-04-24T01:23:37;11.18;;;6.72;;
65667;SDS011;52369;52.542;13.232;2023-04-24T01:26:03;10.40;;;5.85;;
65667;SDS011;52369;52.542;13.232;2023-04-24T01:28:29;8.98;;;5.53;;
65667;SDS011;52369;52.542;13.232;2023-04-24T01:30:56;9.98;;;5.22;;
65667;SDS011;52369;52.542;13.232;2023-04-24T01:33:22;8.20;;;5.15;;
65667;SDS011;52369;52.542;13.232;2023-04-24T01:35:48;8.63;;;5.28;;
65667;SDS011;52369;52.542;13.232;2023-04-24T01:38:14;8.80;;;5.50;;
65667;SDS011;52369;52.542;13.232;2023-04-24T01:40:40;8.82;;;5.32;;
65667;SDS011;52369;52.542;13.232;2023-04-24T01:43:06;9.65;;;5.63;;
65667;SDS011;52369;52.542;13.232;2023-04-24T01:45:32;9.40;;;5.60;;
65667;SDS011;52369;52.542;13.232;2023-04-24T01:47:58;9.48;;;5.90;;
65667;SDS011;52369;52.542;13.232;2023-04-24T01:50:26;7.63;;;5.47;;
65667;SDS011;52369;52.542;13.232;2023-04-24T01:52:52;10.10;;;6.07;;
65667;SDS011;52369;52.542;13.232;2023-04-24T01:55:18;8.48;;;5.65;;
65667;SDS011;52369;52.542;13.232;2023-04-24T01:57:44;8.00;;;5.53;;
65667;SDS011;52369;52.542;13.232;2023-04-24T02:00:10;7.53;;;5.20;;
65667;SDS011;52369;52.542;13.232;2023-04-24T02:02:37;7.78;;;5.47;;
65667;SDS011;52369;52.542;13.232;2023-04-24T02:05:05;8.30;;;5.57;;
65667;SDS011;52369;52.542;13.232;2023-04-24T02:07:32;9.23;;;5.97;;
65667;SDS011;52369;52.542;13.232;2023-04-24T02:09:58;8.27;;;5.60;;
65667;SDS011;52369;52.542;13.232;2023-04-24T02:12:24;9.10;;;5.68;;
65667;SDS011;52369;52.542;13.232;2023-04-24T02:14:50;9.50;;;6.18;;
65667;SDS011;52369;52.542;13.232;2023-04-24T02:17:16;9.45;;;6.10;;
65667;SDS011;52369;52.542;13.232;2023-04-24T02:19:44;10.75;;;5.68;;
65667;SDS011;52369;52.542;13.232;2023-04-24T02:22:10;9.30;;;5.88;;
65667;SDS011;52369;52.542;13.232;2023-04-24T02:24:36;9.27;;;5.85;;
65667;SDS011;52369;52.542;13.232;2023-04-24T02:27:02;8.30;;;5.75;;
65667;SDS011;52369;52.542;13.232;2023-04-24T02:29:28;10.02;;;6.15;;
65667;SDS011;52369;52.542;13.232;2023-04-24T02:31:55;10.35;;;6.32;;
65667;SDS011;52369;52.542;13.232;2023-04-24T02:34:21;10.27;;;6.38;;
65667;SDS011;52369;52.542;13.232;2023-04-24T02:36:48;9.20;;;5.78;;
65667;SDS011;52369;52.542;13.232;2023-04-24T02:39:14;9.88;;;6.28;;
65667;SDS011;52369;52.542;13.232;2023-04-24T02:41:41;11.38;;;6.00;;
65667;SDS011;52369;52.542;13.232;2023-04-24T02:44:07;9.23;;;5.95;;
65667;SDS011;52369;52.542;13.232;2023-04-24T02:46:33;10.43;;;6.20;;
65667;SDS011;52369;52.542;13.232;2023-04-24T02:48:59;9.80;;;5.70;;
65667;SDS011;52369;52.542;13.232;2023-04-24T02:51:25;9.45;;;6.22;;
65667;SDS011;52369;52.542;13.232;2023-04-24T02:53:52;10.98;;;5.95;;
65667;SDS011;52369;52.542;13.232;2023-04-24T02:56:18;10.10;;;6.07;;
65667;SDS011;52369;52.542;13.232;2023-04-24T02:58:44;9.32;;;5.80;;
65667;SDS011;52369;52.542;13.232;2023-04-24T03:01:10;10.13;;;6.53;;
65667;SDS011;52369;52.542;13.232;2023-04-24T03:03:36;8.77;;;5.53;;
65667;SDS011;52369;52.542;13.232;2023-04-24T03:06:02;8.68;;;5.70;;
65667;SDS011;52369;52.542;13.232;2023-04-24T03:08:30;9.10;;;5.78;;
65667;SDS011;52369;52.542;13.232;2023-04-24T03:10:56;8.85;;;6.07;;
65667;SDS011;52369;52.542;13.232;2023-04-24T03:13:23;9.10;;;6.35;;
65667;SDS011;52369;52.542;13.232;2023-04-24T03:15:49;10.90;;;6.78;;
65667;SDS011;52369;52.542;13.232;2023-04-24T03:18:15;9.52;;;6.38;;
65667;SDS011;52369;52.542;13.232;2023-04-24T03:20:41;10.23;;;6.30;;
65667;SDS011;52369;52.542;13.232;2023-04-24T03:23:07;10.98;;;6.50;;
65667;SDS011;52369;52.542;13.232;2023-04-24T03:25:33;9.20;;;6.00;;
65667;SDS011;52369;52.542;13.232;2023-04-24T03:27:59;10.85;;;6.35;;
65667;SDS011;52369;52.542;13.232;2023-04-24T03:30:25;9.18;;;5.85;;
65667;SDS011;52369;52.542;13.232;2023-04-24T03:32:51;9.20;;;6.00;;
65667;SDS011;52369;52.542;13.232;2023-04-24T03:35:17;9.98;;;6.07;;
65667;SDS011;52369;52.542;13.232;2023-04-24T03:37:43;10.35;;;6.30;;
65667;SDS011;52369;52.542;13.232;2023-04-24T03:40:09;10.25;;;5.88;;
65667;SDS011;52369;52.542;13.232;2023-04-24T03:42:35;9.90;;;5.78;;
65667;SDS011;52369;52.542;13.232;2023-04-24T03:45:01;11.25;;;6.95;;
65667;SDS011;52369;52.542;13.232;2023-04-24T03:47:27;10.57;;;5.95;;
65667;SDS011;52369;52.542;13.232;2023-04-24T03:49:53;11.63;;;6.07;;
65667;SDS011;52369;52.542;13.232;2023-04-24T03:52:20;8.70;;;5.90;;
65667;SDS011;52369;52.542;13.232;2023-04-24T03:54:46;8.40;;;5.90;;
65667;SDS011;52369;52.542;13.232;2023-04-24T03:57:12;8.80;;;5.70;;
65667;SDS011;52369;52.542;13.232;2023-04-24T03:59:38;7.55;;;5.38;;
65667;SDS011;52369;52.542;13.232;2023-04-24T04:02:05;9.30;;;5.70;;
65667;SDS011;52369;52.542;13.232;2023-04-24T04:04:31;6.88;;;4.90;;
65667;SDS011;52369;52.542;13.232;2023-04-24T04:06:57;8.55;;;5.28;;
65667;SDS011;52369;52.542;13.232;2023-04-24T04:09:26;7.28;;;5.05;;
65667;SDS011;52369;52.542;13.232;2023-04-24T04:11:52;8.02;;;5.22;;
65667;SDS011;52369;52.542;13.232;2023-04-24T04:14:18;8.27;;;5.25;;
65667;SDS011;52369;52.542;13.232;2023-04-24T04:16:44;8.23;;;5.20;;
65667;SDS011;52369;52.542;13.232;2023-04-24T04:19:10;10.02;;;5.00;;
65667;SDS011;52369;52.542;13.232;2023-04-24T04:21:36;8.13;;;5.53;;
65667;SDS011;52369;52.542;13.232;2023-04-24T04:24:02;8.20;;;5.38;;
65667;SDS011;52369;52.542;13.232;2023-04-24T04:26:30;7.68;;;4.80;;
65667;SDS011;52369;52.542;13.232;2023-04-24T04:28:58;7.50;;;5.00;;
65667;SDS011;52369;52.542;13.232;2023-04-24T04:31:25;8.45;;;4.43;;
65667;SDS011;52369;52.542;13.232;2023-04-24T04:33:51;9.85;;;4.82;;
65667;SDS011;52369;52.542;13.232;2023-04-24T04:36:17;6.10;;;4.35;;
65667;SDS011;52369;52.542;13.232;2023-04-24T04:38:43;9.90;;;4.80;;
65667;SDS011;52369;52.542;13.232;2023-04-24T04:41:10;6.53;;;4.50;;
65667;SDS011;52369;52.542;13.232;2023-04-24T04:43:36;8.70;;;4.68;;
65667;SDS011;52369;52.542;13.232;2023-04-24T04:46:04;7.80;;;4.75;;
65667;SDS011;52369;52.542;13.232;2023-04-24T04:48:31;7.55;;;4.90;;
65667;SDS011;52369;52.542;13.232;2023-04-24T04:50:57;7.20;;;4.78;;
65667;SDS011;52369;52.542;13.232;2023-04-24T04:53:23;7.07;;;4.47;;
65667;SDS011;52369;52.542;13.232;2023-04-24T04:55:50;8.23;;;5.15;;
65667;SDS011;52369;52.542;13.232;2023-04-24T04:58:16;7.22;;;4.60;;
65667;SDS011;52369;52.542;13.232;2023-04-24T05:00:42;7.78;;;4.55;;
65667;SDS011;52369;52.542;13.232;2023-04-24T05:03:08;8.63;;;4.70;;
65667;SDS011;52369;52.542;13.232;2023-04-24T05:05:34;8.93;;;4.47;;
65667;SDS011;52369;52.542;13.232;2023-04-24T05:08:00;8.35;;;4.68;;
65667;SDS011;52369;52.542;13.232;2023-04-24T05:10:26;7.50;;;4.82;;
65667;SDS011;52369;52.542;13.232;2023-04-24T05:12:52;7.07;;;4.32;;
65667;SDS011;52369;52.542;13.232;2023-04-24T05:15:18;6.45;;;4.63;;
65667;SDS011;52369;52.542;13.232;2023-04-24T05:17:44;9.80;;;4.70;;
65667;SDS011;52369;52.542;13.232;2023-04-24T05:20:10;7.00;;;4.43;;
65667;SDS011;52369;52.542;13.232;2023-04-24T05:22:36;8.02;;;4.35;;
65667;SDS011;52369;52.542;13.232;2023-04-24T05:25:02;6.90;;;4.13;;
65667;SDS011;52369;52.542;13.232;2023-04-24T05:27:28;6.22;;;4.05;;
65667;SDS011;52369;52.542;13.232;2023-04-24T05:29:54;7.00;;;4.32;;
65667;SDS011;52369;52.542;13.232;2023-04-24T05:32:21;7.00;;;4.30;;
65667;SDS011;52369;52.542;13.232;2023-04-24T05:34:47;5.57;;;3.97;;
65667;SDS011;52369;52.542;13.232;2023-04-24T05:37:13;6.82;;;4.20;;
65667;SDS011;52369;52.542;13.232;2023-04-24T05:39:39;5.10;;;3.75;;
65667;SDS011;52369;52.542;13.232;2023-04-24T05:42:06;5.72;;;3.95;;
65667;SDS011;52369;52.542;13.232;2023-04-24T05:44:32;8.30;;;4.20;;
65667;SDS011;52369;52.542;13.232;2023-04-24T05:46:59;6.18;;;4.20;;
65667;SDS011;52369;52.542;13.232;2023-04-24T05:49:25;12.40;;;4.57;;
65667;SDS011;52369;52.542;13.232;2023-04-24T05:51:51;5.55;;;3.88;;
65667;SDS011;52369;52.542;13.232;2023-04-24T05:54:17;6.93;;;4.38;;
65667;SDS011;52369;52.542;13.232;2023-04-24T05:56:43;7.53;;;3.95;;
65667;SDS011;52369;52.542;13.232;2023-04-24T05:59:10;7.28;;;4.32;;
65667;SDS011;52369;52.542;13.232;2023-04-24T06:01:36;6.80;;;4.03;;
65667;SDS011;52369;52.542;13.232;2023-04-24T06:04:02;6.60;;;4.28;;
65667;SDS011;52369;52.542;13.232;2023-04-24T06:06:28;4.45;;;3.05;;
65667;SDS011;52369;52.542;13.232;2023-04-24T06:08:55;6.25;;;4.20;;
65667;SDS011;52369;52.542;13.232;2023-04-24T06:11:22;6.75;;;3.70;;
65667;SDS011;52369;52.542;13.232;2023-04-24T06:13:48;7.82;;;3.38;;
65667;SDS011;52369;52.542;13.232;2023-04-24T06:16:14;6.30;;;2.97;;
65667;SDS011;52369;52.542;13.232;2023-04-24T06:18:40;5.18;;;3.30;;
65667;SDS011;52369;52.542;13.232;2023-04-24T06:21:06;9.88;;;3.20;;
65667;SDS011;52369;52.542;13.232;2023-04-24T06:23:32;4.07;;;2.53;;
65667;SDS011;52369;52.542;13.232;2023-04-24T06:25:58;3.00;;;2.30;;
65667;SDS011;52369;52.542;13.232;2023-04-24T06:28:25;4.63;;;2.53;;
65667;SDS011;52369;52.542;13.232;2023-04-24T06:30:51;4.10;;;2.30;;
65667;SDS011;52369;52.542;13.232;2023-04-24T06:33:17;2.05;;;1.80;;
65667;SDS011;52369;52.542;13.232;2023-04-24T06:35:43;3.13;;;1.73;;
65667;SDS011;52369;52.542;13.232;2023-04-24T06:38:09;3.85;;;2.10;;
65667;SDS011;52369;52.542;13.232;2023-04-24T06:40:35;3.40;;;1.58;;
65667;SDS011;52369;52.542;13.232;2023-04-24T06:43:01;2.80;;;1.65;;
65667;SDS011;52369;52.542;13.232;2023-04-24T06:45:28;3.08;;;1.85;;
65667;SDS011;52369;52.542;13.232;2023-04-24T06:47:54;4.63;;;2.15;;
65667;SDS011;52369;52.542;13.232;2023-04-24T06:50:21;2.03;;;1.60;;
65667;SDS011;52369;52.542;13.232;2023-04-24T06:52:47;2.58;;;1.30;;
65667;SDS011;52369;52.542;13.232;2023-04-24T06:55:13;2.67;;;1.63;;
65667;SDS011;52369;52.542;13.232;2023-04-24T06:57:41;3.15;;;1.52;;
65667;SDS011;52369;52.542;13.232;2023-04-24T07:00:09;4.75;;;1.70;;
65667;SDS011;52369;52.542;13.232;2023-04-24T07:02:35;3.80;;;1.40;;
65667;SDS011;52369;52.542;13.232;2023-04-24T07:05:02;2.70;;;1.70;;
65667;SDS011;52369;52.542;13.232;2023-04-24T07:07:28;2.28;;;1.40;;
65667;SDS011;52369;52.542;13.232;2023-04-24T07:09:54;3.35;;;1.60;;
65667;SDS011;52369;52.542;13.232;2023-04-24T07:12:21;3.03;;;1.80;;
65667;SDS011;52369;52.542;13.232;2023-04-24T07:14:47;2.08;;;1.80;;
65667;SDS011;52369;52.542;13.232;2023-04-24T07:17:13;2.22;;;1.20;;
65667;SDS011;52369;52.542;13.232;2023-04-24T07:19:39;4.90;;;1.67;;
65667;SDS011;52369;52.542;13.232;2023-04-24T07:22:05;1.77;;;1.20;;
65667;SDS011;52369;52.542;13.232;2023-04-24T07:24:32;2.72;;;1.40;;
65667;SDS011;52369;52.542;13.232;2023-04-24T07:26:58;1.40;;;1.10;;
65667;SDS011;52369;52.542;13.232;2023-04-24T07:29:26;1.80;;;1.10;;
65667;SDS011;52369;52.542;13.232;2023-04-24T07:31:52;2.95;;;1.20;;
65667;SDS011;52369;52.542;13.232;2023-04-24T07:34:19;2.72;;;1.48;;
65667;SDS011;52369;52.542;13.232;2023-04-24T07:36:45;2.13;;;1.50;;
65667;SDS011;52369;52.542;13.232;2023-04-24T07:39:12;2.75;;;1.42;;
65667;SDS011;52369;52.542;13.232;2023-04-24T07:41:38;5.07;;;1.40;;
65667;SDS011;52369;52.542;13.232;2023-04-24T07:44:04;2.30;;;1.25;;
65667;SDS011;52369;52.542;13.232;2023-04-24T07:46:30;2.75;;;1.10;;
65667;SDS011;52369;52.542;13.232;2023-04-24T07:48:57;1.95;;;1.17;;
65667;SDS011;52369;52.542;13.232;2023-04-24T07:51:24;1.27;;;1.02;;
65667;SDS011;52369;52.542;13.232;2023-04-24T07:53:52;2.20;;;1.17;;
65667;SDS011;52369;52.542;13.232;2023-04-24T07:56:20;2.13;;;1.15;;
65667;SDS011;52369;52.542;13.232;2023-04-24T07:58:46;1.02;;;0.90;;
65667;SDS011;52369;52.542;13.232;2023-04-24T08:01:12;1.65;;;1.02;;
65667;SDS011;52369;52.542;13.232;2023-04-24T08:03:38;1.60;;;0.93;;
65667;SDS011;52369;52.542;13.232;2023-04-24T08:06:04;1.23;;;1.00;;
65667;SDS011;52369;52.542;13.232;2023-04-24T08:08:30;1.25;;;0.85;;
65667;SDS011;52369;52.542;13.232;2023-04-24T08:10:56;1.73;;;1.02;;
65667;SDS011;52369;52.542;13.232;2023-04-24T08:13:22;1.67;;;1.17;;
65667;SDS011;52369;52.542;13.232;2023-04-24T08:15:48;1.95;;;1.10;;
65667;SDS011;52369;52.542;13.232;2023-04-24T08:18:15;2.40;;;1.10;;
65667;SDS011;52369;52.542;13.232;2023-04-24T08:20:41;1.95;;;0.85;;
65667;SDS011;52369;52.542;13.232;2023-04-24T08:23:07;4.25;;;0.90;;
65667;SDS011;52369;52.542;13.232;2023-04-24T08:25:33;1.35;;;0.82;;
65667;SDS011;52369;52.542;13.232;2023-04-24T08:28:01;0.70;;;0.68;;
65667;SDS011;52369;52.542;13.232;2023-04-24T08:30:28;2.10;;;1.30;;
65667;SDS011;52369;52.542;13.232;2023-04-24T08:32:54;2.03;;;0.98;;
65667;SDS011;52369;52.542;13.232;2023-04-24T08:35:20;2.05;;;0.90;;
65667;SDS011;52369;52.542;13.232;2023-04-24T08:37:46;3.40;;;1.27;;
65667;SDS011;52369;52.542;13.232;2023-04-24T08:40:13;2.65;;;0.98;;
65667;SDS011;52369;52.542;13.232;2023-04-24T08:42:41;2.78;;;1.00;;
65667;SDS011;52369;52.542;13.232;2023-04-24T08:45:08;1.55;;;0.90;;
65667;SDS011;52369;52.542;13.232;2023-04-24T08:47:35;1.50;;;1.00;;
65667;SDS011;52369;52.542;13.232;2023-04-24T08:50:02;4.00;;;1.10;;
65667;SDS011;52369;52.542;13.232;2023-04-24T08:52:30;2.55;;;1.35;;
65667;SDS011;52369;52.542;13.232;2023-04-24T08:54:58;1.45;;;1.00;;
65667;SDS011;52369;52.542;13.232;2023-04-24T08:57:26;1.45;;;0.70;;
65667;SDS011;52369;52.542;13.232;2023-04-24T08:59:53;1.08;;;0.82;;
65667;SDS011;52369;52.542;13.232;2023-04-24T09:02:19;3.25;;;1.30;;
65667;SDS011;52369;52.542;13.232;2023-04-24T09:04:45;5.75;;;1.02;;
65667;SDS011;52369;52.542;13.232;2023-04-24T09:07:12;2.83;;;1.35;;
65667;SDS011;52369;52.542;13.232;2023-04-24T09:09:38;8.77;;;1.77;;
65667;SDS011;52369;52.542;13.232;2023-04-24T09:12:06;2.30;;;1.10;;
65667;SDS011;52369;52.542;13.232;2023-04-24T09:14:34;2.92;;;1.05;;
65667;SDS011;52369;52.542;13.232;2023-04-24T09:17:01;1.20;;;0.90;;
65667;SDS011;52369;52.542;13.232;2023-04-24T09:19:28;5.40;;;1.20;;
65667;SDS011;52369;52.542;13.232;2023-04-24T09:21:54;3.78;;;1.10;;
65667;SDS011;52369;52.542;13.232;2023-04-24T09:24:21;1.10;;;1.00;;
65667;SDS011;52369;52.542;13.232;2023-04-24T09:26:47;3.92;;;1.73;;
65667;SDS011;52369;52.542;13.232;2023-04-24T09:29:17;2.15;;;1.13;;
65667;SDS011;52369;52.542;13.232;2023-04-24T09:31:43;2.65;;;1.30;;
65667;SDS011;52369;52.542;13.232;2023-04-24T09:34:09;1.33;;;1.00;;
65667;SDS011;52369;52.542;13.232;2023-04-24T09:36:39;2.60;;;1.38;;
65667;SDS011;52369;52.542;13.232;2023-04-24T09:39:07;1.58;;;1.15;;
65667;SDS011;52369;52.542;13.232;2023-04-24T09:41:35;2.30;;;1.20;;
65667;SDS011;52369;52.542;13.232;2023-04-24T09:44:14;7.35;;;1.85;;
65667;SDS011;52369;52.542;13.232;2023-04-24T09:46:41;5.03;;;1.53;;
65667;SDS011;52369;52.542;13.232;2023-04-24T09:49:08;8.10;;;2.13;;
65667;SDS011;52369;52.542;13.232;2023-04-24T09:51:35;2.85;;;1.33;;
65667;SDS011;52369;52.542;13.232;2023-04-24T09:54:02;1.33;;;0.80;;
65667;SDS011;52369;52.542;13.232;2023-04-24T09:56:31;1.63;;;0.85;;
65667;SDS011;52369;52.542;13.232;2023-04-24T09:59:07;3.08;;;1.63;;
65667;SDS011;52369;52.542;13.232;2023-04-24T10:01:33;1.98;;;1.20;;
65667;SDS011;52369;52.542;13.232;2023-04-24T10:04:00;1.27;;;1.10;;
65667;SDS011;52369;52.542;13.232;2023-04-24T10:06:35;2.08;;;1.48;;
65667;SDS011;52369;52.542;13.232;2023-04-24T10:09:02;2.03;;;1.45;;
65667;SDS011;52369;52.542;13.232;2023-04-24T10:11:28;5.30;;;1.25;;
65667;SDS011;52369;52.542;13.232;2023-04-24T10:13:55;3.15;;;1.13;;
65667;SDS011;52369;52.542;13.232;2023-04-24T10:16:22;1.75;;;0.98;;
65667;SDS011;52369;52.542;13.232;2023-04-24T10:18:48;1.23;;;0.93;;
65667;SDS011;52369;52.542;13.232;2023-04-24T10:21:15;1.48;;;0.88;;
65667;SDS011;52369;52.542;13.232;2023-04-24T10:23:42;2.65;;;0.90;;
65667;SDS011;52369;52.542;13.232;2023-04-24T10:26:10;2.35;;;1.55;;
65667;SDS011;52369;52.542;13.232;2023-04-24T10:28:43;2.42;;;1.10;;
65667;SDS011;52369;52.542;13.232;2023-04-24T10:31:09;1.88;;;0.88;;
65667;SDS011;52369;52.542;13.232;2023-04-24T10:33:35;0.80;;;0.75;;
65667;SDS011;52369;52.542;13.232;2023-04-24T10:36:01;1.63;;;1.25;;
65667;SDS011;52369;52.542;13.232;2023-04-24T10:38:28;2.30;;;0.80;;
65667;SDS011;52369;52.542;13.232;2023-04-24T10:41:13;1.17;;;0.80;;
65667;SDS011;52369;52.542;13.232;2023-04-24T10:43:44;1.13;;;1.02;;
65667;SDS011;52369;52.542;13.232;2023-04-24T10:46:10;2.92;;;1.45;;
65667;SDS011;52369;52.542;13.232;2023-04-24T10:48:41;2.28;;;1.27;;
65667;SDS011;52369;52.542;13.232;2023-04-24T10:51:12;2.13;;;1.17;;
65667;SDS011;52369;52.542;13.232;2023-04-24T10:53:39;1.63;;;0.95;;
65667;SDS011;52369;52.542;13.232;2023-04-24T10:56:06;2.10;;;1.15;;
65667;SDS011;52369;52.542;13.232;2023-04-24T10:58:42;4.57;;;1.90;;
65667;SDS011;52369;52.542;13.232;2023-04-24T11:01:32;2.88;;;0.98;;
65667;SDS011;52369;52.542;13.232;2023-04-24T11:03:59;1.23;;;0.90;;
65667;SDS011;52369;52.542;13.232;2023-04-24T11:06:31;2.15;;;1.08;;
65667;SDS011;52369;52.542;13.232;2023-04-24T11:11:32;1.30;;;1.13;;
65667;SDS011;52369;52.542;13.232;2023-04-24T11:16:26;3.45;;;1.40;;
65667;SDS011;52369;52.542;13.232;2023-04-24T11:19:07;9.40;;;4.15;;
65667;SDS011;52369;52.542;13.232;2023-04-24T11:21:43;3.60;;;1.45;;
65667;SDS011;52369;52.542;13.232;2023-04-24T11:26:47;3.08;;;1.17;;
65667;SDS011;52369;52.542;13.232;2023-04-24T11:29:13;1.77;;;0.93;;
65667;SDS011;52369;52.542;13.232;2023-04-24T11:31:40;2.95;;;1.20;;
65667;SDS011;52369;52.542;13.232;2023-04-24T11:34:11;3.75;;;1.33;;
65667;SDS011;52369;52.542;13.232;2023-04-24T11:36:38;1.20;;;1.10;;
65667;SDS011;52369;52.542;13.232;2023-04-24T11:39:05;1.33;;;1.10;;
65667;SDS011;52369;52.542;13.232;2023-04-24T11:41:32;1.30;;;1.13;;
65667;SDS011;52369;52.542;13.232;2023-04-24T11:43:59;2.22;;;0.90;;
65667;SDS011;52369;52.542;13.232;2023-04-24T11:46:29;1.33;;;1.10;;
65667;SDS011;52369;52.542;13.232;2023-04-24T11:48:56;2.70;;;1.10;;
65667;SDS011;52369;52.542;13.232;2023-04-24T11:51:23;2.53;;;1.50;;
65667;SDS011;52369;52.542;13.232;2023-04-24T11:53:50;4.30;;;1.50;;
65667;SDS011;52369;52.542;13.232;2023-04-24T11:56:21;4.00;;;1.40;;
65667;SDS011;52369;52.542;13.232;2023-04-24T11:58:47;2.35;;;1.30;;
65667;SDS011;52369;52.542;13.232;2023-04-24T12:01:13;2.42;;;0.93;;
65667;SDS011;52369;52.542;13.232;2023-04-24T12:03:40;1.35;;;1.02;;
65667;SDS011;52369;52.542;13.232;2023-04-24T12:06:11;2.20;;;1.08;;
65667;SDS011;52369;52.542;13.232;2023-04-24T12:08:37;3.00;;;1.42;;
65667;SDS011;52369;52.542;13.232;2023-04-24T12:11:04;1.65;;;1.00;;
65667;SDS011;52369;52.542;13.232;2023-04-24T12:13:32;3.80;;;1.08;;
65667;SDS011;52369;52.542;13.232;2023-04-24T12:15:58;1.35;;;0.93;;
65667;SDS011;52369;52.542;13.232;2023-04-24T12:18:24;1.58;;;1.08;;
65667;SDS011;52369;52.542;13.232;2023-04-24T12:20:51;1.73;;;1.30;;
65667;SDS011;52369;52.542;13.232;2023-04-24T12:23:32;3.58;;;1.38;;
65667;SDS011;52369;52.542;13.232;2023-04-24T12:26:00;2.15;;;1.27;;
65667;SDS011;52369;52.542;13.232;2023-04-24T12:28:33;2.30;;;1.27;;
65667;SDS011;52369;52.542;13.232;2023-04-24T12:31:00;2.70;;;0.98;;
65667;SDS011;52369;52.542;13.232;2023-04-24T12:33:26;2.45;;;0.90;;
65667;SDS011;52369;52.542;13.232;2023-04-24T12:35:52;4.40;;;1.15;;
65667;SDS011;52369;52.542;13.232;2023-04-24T12:38:21;1.58;;;0.73;;
65667;SDS011;52369;52.542;13.232;2023-04-24T12:40:47;1.45;;;1.00;;
65667;SDS011;52369;52.542;13.232;2023-04-24T12:43:17;2.75;;;1.30;;
65667;SDS011;52369;52.542;13.232;2023-04-24T12:45:44;1.85;;;1.08;;
65667;SDS011;52369;52.542;13.232;2023-04-24T12:48:10;2.92;;;1.23;;
65667;SDS011;52369;52.542;13.232;2023-04-24T12:50:36;2.67;;;1.10;;
65667;SDS011;52369;52.542;13.232;2023-04-24T12:53:03;3.35;;;1.50;;
65667;SDS011;52369;52.542;13.232;2023-04-24T12:55:29;2.28;;;1.33;;
65667;SDS011;52369;52.542;13.232;2023-04-24T12:57:55;1.42;;;0.90;;
65667;SDS011;52369;52.542;13.232;2023-04-24T13:00:21;2.50;;;1.13;;
65667;SDS011;52369;52.542;13.232;2023-04-24T13:02:48;2.00;;;1.05;;
65667;SDS011;52369;52.542;13.232;2023-04-24T13:05:14;2.28;;;1.38;;
65667;SDS011;52369;52.542;13.232;2023-04-24T13:07:40;3.30;;;1.30;;
65667;SDS011;52369;52.542;13.232;2023-04-24T13:10:06;2.90;;;1.30;;
65667;SDS011;52369;52.542;13.232;2023-04-24T13:12:32;2.47;;;1.15;;
65667;SDS011;52369;52.542;13.232;2023-04-24T13:14:58;2.60;;;1.20;;
65667;SDS011;52369;52.542;13.232;2023-04-24T13:17:24;5.72;;;1.60;;
65667;SDS011;52369;52.542;13.232;2023-04-24T13:19:51;4.70;;;2.50;;
65667;SDS011;52369;52.542;13.232;2023-04-24T13:22:17;1.48;;;1.27;;
65667;SDS011;52369;52.542;13.232;2023-04-24T13:24:46;3.03;;;1.40;;
65667;SDS011;52369;52.542;13.232;2023-04-24T13:27:14;1.90;;;1.42;;
65667;SDS011;52369;52.542;13.232;2023-04-24T13:29:40;2.42;;;1.20;;
65667;SDS011;52369;52.542;13.232;2023-04-24T13:32:06;1.98;;;1.20;;
65667;SDS011;52369;52.542;13.232;2023-04-24T13:34:32;1.65;;;1.00;;
65667;SDS011;52369;52.542;13.232;2023-04-24T13:36:59;1.83;;;1.20;;
65667;SDS011;52369;52.542;13.232;2023-04-24T13:39:25;2.80;;;1.30;;
65667;SDS011;52369;52.542;13.232;2023-04-24T13:41:52;2.35;;;1.30;;
65667;SDS011;52369;52.542;13.232;2023-04-24T13:44:19;2.75;;;1.30;;
65667;SDS011;52369;52.542;13.232;2023-04-24T13:46:46;1.67;;;1.15;;
65667;SDS011;52369;52.542;13.232;2023-04-24T13:49:12;2.28;;;1.63;;
65667;SDS011;52369;52.542;13.232;2023-04-24T13:51:39;2.65;;;1.10;;
65667;SDS011;52369;52.542;13.232;2023-04-24T13:54:05;2.40;;;1.13;;
65667;SDS011;52369;52.542;13.232;2023-04-24T13:56:31;1.90;;;1.25;;
65667;SDS011;52369;52.542;13.232;2023-04-24T13:58:57;2.10;;;1.40;;
65667;SDS011;52369;52.542;13.232;2023-04-24T14:01:23;2.55;;;1.23;;
65667;SDS011;52369;52.542;13.232;2023-04-24T14:03:50;1.55;;;1.20;;
65667;SDS011;52369;52.542;13.232;2023-04-24T14:06:17;1.83;;;1.20;;
65667;SDS011;52369;52.542;13.232;2023-04-24T14:08:43;1.10;;;1.00;;
65667;SDS011;52369;52.542;13.232;2023-04-24T14:11:09;1.08;;;1.02;;
65667;SDS011;52369;52.542;13.232;2023-04-24T14:13:36;2.38;;;1.05;;
65667;SDS011;52369;52.542;13.232;2023-04-24T14:16:03;2.33;;;1.40;;
65667;SDS011;52369;52.542;13.232;2023-04-24T14:18:29;1.13;;;1.00;;
65667;SDS011;52369;52.542;13.232;2023-04-24T14:20:55;3.22;;;1.23;;
65667;SDS011;52369;52.542;13.232;2023-04-24T14:23:21;5.22;;;1.42;;
65667;SDS011;52369;52.542;13.232;2023-04-24T14:25:47;2.15;;;1.58;;
65667;SDS011;52369;52.542;13.232;2023-04-24T14:28:16;2.03;;;1.05;;
65667;SDS011;52369;52.542;13.232;2023-04-24T14:30:42;3.97;;;1.30;;
65667;SDS011;52369;52.542;13.232;2023-04-24T14:33:08;4.03;;;1.38;;
65667;SDS011;52369;52.542;13.232;2023-04-24T14:35:35;3.53;;;1.40;;
65667;SDS011;52369;52.542;13.232;2023-04-24T14:38:01;2.58;;;1.27;;